sensor_id;sensor_type;location;lat;lon;timestamp;pressure;altitude;pressure_sealevel;temperature;humidity
68075;BME280;54864;52.002;5.468;2023-02-01T00:00:59;101814.56;;;5.71;74.37
68075;BME280;54864;52.002;5.468;2023-02-01T00:02:00;101817.19;;;5.70;74.01
68075;BME280;54864;52.002;5.468;2023-02-01T00:03:02;101822.34;;;5.76;74.08
68075;BME280;54864;52.002;5.468;2023-02-01T00:04:04;101821.41;;;5.83;74.04
68075;BME280;54864;52.002;5.468;2023-02-01T00:05:07;101825.00;;;5.74;74.02
68075;BME280;54864;52.002;5.468;2023-02-01T00:06:08;101826.66;;;5.82;73.70
68075;BME280;54864;52.002;5.468;2023-02-01T00:07:10;101817.94;;;5.83;73.85
68075;BME280;54864;52.002;5.468;2023-02-01T00:08:10;101830.19;;;5.79;73.57
68075;BME280;54864;52.002;5.468;2023-02-01T00:09:12;101818.00;;;5.77;73.66
68075;BME280;54864;52.002;5.468;2023-02-01T00:10:13;101810.16;;;5.77;74.10
68075;BME280;54864;52.002;5.468;2023-02-01T00:11:15;101822.31;;;5.85;73.50
68075;BME280;54864;52.002;5.468;2023-02-01T00:12:15;101823.13;;;5.89;73.38
68075;BME280;54864;52.002;5.468;2023-02-01T00:13:17;101827.50;;;5.91;73.43
68075;BME280;54864;52.002;5.468;2023-02-01T00:14:18;101823.09;;;5.96;73.24
68075;BME280;54864;52.002;5.468;2023-02-01T00:15:20;101820.47;;;5.98;73.06
68075;BME280;54864;52.002;5.468;2023-02-01T00:16:24;101823.00;;;6.04;72.57
68075;BME280;54864;52.002;5.468;2023-02-01T00:17:26;101822.06;;;6.11;72.43
68075;BME280;54864;52.002;5.468;2023-02-01T00:18:27;101825.56;;;6.12;72.48
68075;BME280;54864;52.002;5.468;2023-02-01T00:19:28;101826.34;;;6.18;72.67
68075;BME280;54864;52.002;5.468;2023-02-01T00:20:30;101824.63;;;6.17;72.38
68075;BME280;54864;52.002;5.468;2023-02-01T00:21:32;101826.31;;;6.21;72.54
68075;BME280;54864;52.002;5.468;2023-02-01T00:22:34;101813.25;;;6.18;72.60
68075;BME280;54864;52.002;5.468;2023-02-01T00:23:37;101822.75;;;6.27;71.79
68075;BME280;54864;52.002;5.468;2023-02-01T00:24:38;101829.59;;;6.39;71.57
68075;BME280;54864;52.002;5.468;2023-02-01T00:25:40;101833.13;;;6.34;71.67
68075;BME280;54864;52.002;5.468;2023-02-01T00:26:43;101833.13;;;6.36;71.57
68075;BME280;54864;52.002;5.468;2023-02-01T00:27:48;101825.28;;;6.36;71.17
68075;BME280;54864;52.002;5.468;2023-02-01T00:28:49;101819.97;;;6.41;71.04
68075;BME280;54864;52.002;5.468;2023-02-01T00:29:51;101820.75;;;6.49;70.99
68075;BME280;54864;52.002;5.468;2023-02-01T00:30:56;101813.72;;;6.55;70.73
68075;BME280;54864;52.002;5.468;2023-02-01T00:31:59;101812.88;;;6.49;71.43
68075;BME280;54864;52.002;5.468;2023-02-01T00:33:00;101818.94;;;6.55;71.17
68075;BME280;54864;52.002;5.468;2023-02-01T00:34:02;101812.00;;;6.50;71.09
68075;BME280;54864;52.002;5.468;2023-02-01T00:35:04;101822.47;;;6.53;71.13
68075;BME280;54864;52.002;5.468;2023-02-01T00:36:09;101821.56;;;6.55;70.69
68075;BME280;54864;52.002;5.468;2023-02-01T00:37:10;101816.31;;;6.57;70.43
68075;BME280;54864;52.002;5.468;2023-02-01T00:38:11;101817.22;;;6.53;71.25
68075;BME280;54864;52.002;5.468;2023-02-01T00:39:12;101813.84;;;6.42;71.22
68075;BME280;54864;52.002;5.468;2023-02-01T00:40:15;101820.69;;;6.56;70.97
68075;BME280;54864;52.002;5.468;2023-02-01T00:41:17;101825.06;;;6.54;70.83
68075;BME280;54864;52.002;5.468;2023-02-01T00:42:19;101817.22;;;6.54;70.91
68075;BME280;54864;52.002;5.468;2023-02-01T00:43:20;101801.53;;;6.48;71.07
68075;BME280;54864;52.002;5.468;2023-02-01T00:44:22;101813.63;;;6.61;70.99
68075;BME280;54864;52.002;5.468;2023-02-01T00:45:24;101821.38;;;6.71;70.33
68075;BME280;54864;52.002;5.468;2023-02-01T00:46:24;101808.41;;;6.60;71.00
68075;BME280;54864;52.002;5.468;2023-02-01T00:47:28;101819.69;;;6.65;70.43
68075;BME280;54864;52.002;5.468;2023-02-01T00:48:28;101824.94;;;6.65;70.68
68075;BME280;54864;52.002;5.468;2023-02-01T00:49:30;101823.13;;;6.68;70.22
68075;BME280;54864;52.002;5.468;2023-02-01T00:50:33;101815.41;;;6.59;70.40
68075;BME280;54864;52.002;5.468;2023-02-01T00:51:35;101821.44;;;6.66;70.87
68075;BME280;54864;52.002;5.468;2023-02-01T00:52:36;101824.91;;;6.66;70.24
68075;BME280;54864;52.002;5.468;2023-02-01T00:53:38;101813.44;;;6.75;70.40
68075;BME280;54864;52.002;5.468;2023-02-01T00:54:39;101819.41;;;6.86;69.91
68075;BME280;54864;52.002;5.468;2023-02-01T00:55:44;101821.19;;;6.84;69.56
68075;BME280;54864;52.002;5.468;2023-02-01T00:56:45;101830.91;;;6.75;69.72
68075;BME280;54864;52.002;5.468;2023-02-01T00:57:47;101828.38;;;6.68;70.07
68075;BME280;54864;52.002;5.468;2023-02-01T00:58:47;101825.72;;;6.72;70.26
68075;BME280;54864;52.002;5.468;2023-02-01T00:59:49;101828.38;;;6.68;70.38
68075;BME280;54864;52.002;5.468;2023-02-01T01:00:54;101818.69;;;6.74;70.37
68075;BME280;54864;52.002;5.468;2023-02-01T01:01:58;101818.69;;;6.74;70.09
68075;BME280;54864;52.002;5.468;2023-02-01T01:03:00;101831.97;;;6.61;70.50
68075;BME280;54864;52.002;5.468;2023-02-01T01:04:02;101828.41;;;6.67;70.76
68075;BME280;54864;52.002;5.468;2023-02-01T01:05:03;101826.63;;;6.69;70.51
68075;BME280;54864;52.002;5.468;2023-02-01T01:06:09;101822.34;;;6.62;70.72
68075;BME280;54864;52.002;5.468;2023-02-01T01:07:11;101826.69;;;6.64;70.75
68075;BME280;54864;52.002;5.468;2023-02-01T01:08:13;101819.00;;;6.48;70.94
68075;BME280;54864;52.002;5.468;2023-02-01T01:09:14;101806.78;;;6.51;71.11
68075;BME280;54864;52.002;5.468;2023-02-01T01:10:16;101814.69;;;6.45;70.86
68075;BME280;54864;52.002;5.468;2023-02-01T01:11:19;101809.44;;;6.45;71.21
68075;BME280;54864;52.002;5.468;2023-02-01T01:12:21;101817.28;;;6.45;71.79
68075;BME280;54864;52.002;5.468;2023-02-01T01:13:22;101813.88;;;6.39;71.95
68075;BME280;54864;52.002;5.468;2023-02-01T01:14:24;101813.16;;;6.26;72.22
68075;BME280;54864;52.002;5.468;2023-02-01T01:15:24;101812.16;;;6.38;72.12
68075;BME280;54864;52.002;5.468;2023-02-01T01:16:28;101813.94;;;6.34;72.25
68075;BME280;54864;52.002;5.468;2023-02-01T01:17:31;101807.75;;;6.41;71.99
68075;BME280;54864;52.002;5.468;2023-02-01T01:18:34;101815.53;;;6.50;71.74
68075;BME280;54864;52.002;5.468;2023-02-01T01:19:35;101816.34;;;6.54;71.37
68075;BME280;54864;52.002;5.468;2023-02-01T01:20:39;101810.41;;;6.36;71.49
68075;BME280;54864;52.002;5.468;2023-02-01T01:21:40;101810.47;;;6.33;72.50
68075;BME280;54864;52.002;5.468;2023-02-01T01:22:42;101806.09;;;6.34;72.39
68075;BME280;54864;52.002;5.468;2023-02-01T01:23:43;101807.72;;;6.43;72.20
68075;BME280;54864;52.002;5.468;2023-02-01T01:24:45;101805.06;;;6.46;72.63
68075;BME280;54864;52.002;5.468;2023-02-01T01:25:45;101810.25;;;6.49;72.23
68075;BME280;54864;52.002;5.468;2023-02-01T01:26:47;101806.75;;;6.50;72.20
68075;BME280;54864;52.002;5.468;2023-02-01T01:27:48;101817.28;;;6.47;72.09
68075;BME280;54864;52.002;5.468;2023-02-01T01:28:50;101800.75;;;6.42;72.20
68075;BME280;54864;52.002;5.468;2023-02-01T01:29:51;101793.69;;;6.48;72.03
68075;BME280;54864;52.002;5.468;2023-02-01T01:30:53;101800.63;;;6.54;71.94
68075;BME280;54864;52.002;5.468;2023-02-01T01:31:54;101804.13;;;6.50;71.97
68075;BME280;54864;52.002;5.468;2023-02-01T01:32:56;101797.19;;;6.47;71.63
68075;BME280;54864;52.002;5.468;2023-02-01T01:33:59;101795.50;;;6.42;72.03
68075;BME280;54864;52.002;5.468;2023-02-01T01:35:01;101807.72;;;6.44;71.68
68075;BME280;54864;52.002;5.468;2023-02-01T01:36:04;101794.59;;;6.46;72.23
68075;BME280;54864;52.002;5.468;2023-02-01T01:37:06;101798.00;;;6.55;71.46
68075;BME280;54864;52.002;5.468;2023-02-01T01:38:10;101792.72;;;6.58;71.19
68075;BME280;54864;52.002;5.468;2023-02-01T01:39:12;101792.69;;;6.60;71.26
68075;BME280;54864;52.002;5.468;2023-02-01T01:40:13;101800.63;;;6.54;71.16
68075;BME280;54864;52.002;5.468;2023-02-01T01:41:18;101806.72;;;6.54;71.53
68075;BME280;54864;52.002;5.468;2023-02-01T01:42:19;101805.00;;;6.53;71.47
68075;BME280;54864;52.002;5.468;2023-02-01T01:43:21;101802.28;;;6.61;71.11
68075;BME280;54864;52.002;5.468;2023-02-01T01:44:55;101799.78;;;6.52;71.30
68075;BME280;54864;52.002;5.468;2023-02-01T01:45:57;101804.97;;;6.55;71.06
68075;BME280;54864;52.002;5.468;2023-02-01T01:46:59;101793.66;;;6.50;71.15
68075;BME280;54864;52.002;5.468;2023-02-01T01:48:05;101796.41;;;6.41;71.48
68075;BME280;54864;52.002;5.468;2023-02-01T01:49:13;101801.53;;;6.50;71.25
68075;BME280;54864;52.002;5.468;2023-02-01T01:50:19;101803.28;;;6.48;71.31
68075;BME280;54864;52.002;5.468;2023-02-01T01:51:24;101805.09;;;6.43;72.21
68075;BME280;54864;52.002;5.468;2023-02-01T01:52:28;101797.19;;;6.47;71.19
68075;BME280;54864;52.002;5.468;2023-02-01T01:53:33;101802.44;;;6.46;71.30
68075;BME280;54864;52.002;5.468;2023-02-01T01:54:41;101805.97;;;6.43;71.56
68075;BME280;54864;52.002;5.468;2023-02-01T01:55:45;101790.25;;;6.45;71.30
68075;BME280;54864;52.002;5.468;2023-02-01T01:56:51;101788.47;;;6.47;71.36
68075;BME280;54864;52.002;5.468;2023-02-01T01:57:55;101788.53;;;6.41;71.39
68075;BME280;54864;52.002;5.468;2023-02-01T01:58:59;101790.25;;;6.43;71.44
68075;BME280;54864;52.002;5.468;2023-02-01T02:00:03;101789.47;;;6.36;71.70
68075;BME280;54864;52.002;5.468;2023-02-01T02:01:07;101786.75;;;6.44;71.11
68075;BME280;54864;52.002;5.468;2023-02-01T02:02:08;101792.06;;;6.38;71.25
68075;BME280;54864;52.002;5.468;2023-02-01T02:03:14;101788.75;;;6.24;71.62
68075;BME280;54864;52.002;5.468;2023-02-01T02:04:18;101784.34;;;6.27;71.73
68075;BME280;54864;52.002;5.468;2023-02-01T02:05:20;101780.94;;;6.21;72.03
68075;BME280;54864;52.002;5.468;2023-02-01T02:06:30;101779.19;;;6.21;72.22
68075;BME280;54864;52.002;5.468;2023-02-01T02:07:36;101781.78;;;6.23;72.54
68075;BME280;54864;52.002;5.468;2023-02-01T02:08:38;101773.00;;;6.27;72.15
68075;BME280;54864;52.002;5.468;2023-02-01T02:09:40;101777.47;;;6.19;71.96
68075;BME280;54864;52.002;5.468;2023-02-01T02:10:40;101771.50;;;6.06;72.65
68075;BME280;54864;52.002;5.468;2023-02-01T02:12:00;101767.09;;;6.10;72.71
68075;BME280;54864;52.002;5.468;2023-02-01T02:13:01;101767.88;;;6.19;72.19
68075;BME280;54864;52.002;5.468;2023-02-01T02:14:05;101761.75;;;6.19;72.34
68075;BME280;54864;52.002;5.468;2023-02-01T02:15:12;101766.09;;;6.21;72.25
68075;BME280;54864;52.002;5.468;2023-02-01T02:16:23;101772.09;;;6.29;72.13
68075;BME280;54864;52.002;5.468;2023-02-01T02:17:32;101765.31;;;6.15;72.73
68075;BME280;54864;52.002;5.468;2023-02-01T02:18:45;101770.38;;;6.28;72.30
68075;BME280;54864;52.002;5.468;2023-02-01T02:20:25;101764.19;;;6.34;71.92
68075;BME280;54864;52.002;5.468;2023-02-01T02:21:47;101767.66;;;6.34;71.98
68075;BME280;54864;52.002;5.468;2023-02-01T02:23:17;101775.59;;;6.30;71.81
68075;BME280;54864;52.002;5.468;2023-02-01T02:24:39;101770.38;;;6.28;72.69
68075;BME280;54864;52.002;5.468;2023-02-01T02:27:23;101758.00;;;6.40;72.16
68075;BME280;54864;52.002;5.468;2023-02-01T02:28:49;101763.22;;;6.41;72.12
68075;BME280;54864;52.002;5.468;2023-02-01T02:31:58;101763.03;;;6.58;71.70
68075;BME280;54864;52.002;5.468;2023-02-01T02:33:41;101756.03;;;6.58;72.12
68075;BME280;54864;52.002;5.468;2023-02-01T02:34:50;101757.75;;;6.61;72.11
68075;BME280;54864;52.002;5.468;2023-02-01T02:35:59;101756.84;;;6.62;71.90
68075;BME280;54864;52.002;5.468;2023-02-01T02:37:07;101763.81;;;6.64;72.01
68075;BME280;54864;52.002;5.468;2023-02-01T02:38:17;101752.38;;;6.68;72.18
68075;BME280;54864;52.002;5.468;2023-02-01T02:39:34;101748.03;;;6.67;72.04
68075;BME280;54864;52.002;5.468;2023-02-01T02:40:45;101740.19;;;6.67;71.93
68075;BME280;54864;52.002;5.468;2023-02-01T02:41:55;101748.75;;;6.79;71.61
68075;BME280;54864;52.002;5.468;2023-02-01T02:43:21;101759.13;;;6.86;71.70
68075;BME280;54864;52.002;5.468;2023-02-01T02:44:47;101749.50;;;6.87;71.96
68075;BME280;54864;52.002;5.468;2023-02-01T02:46:16;101737.16;;;6.93;71.54
68075;BME280;54864;52.002;5.468;2023-02-01T02:47:44;101741.50;;;6.96;71.34
68075;BME280;54864;52.002;5.468;2023-02-01T02:48:53;101729.28;;;6.93;71.59
68075;BME280;54864;52.002;5.468;2023-02-01T02:50:05;101729.34;;;6.90;71.17
68075;BME280;54864;52.002;5.468;2023-02-01T02:51:30;101731.75;;;7.04;71.24
68075;BME280;54864;52.002;5.468;2023-02-01T02:53:07;101743.03;;;7.08;71.29
68075;BME280;54864;52.002;5.468;2023-02-01T02:54:32;101747.56;;;6.98;71.87
68075;BME280;54864;52.002;5.468;2023-02-01T02:55:50;101740.53;;;7.02;71.93
68075;BME280;54864;52.002;5.468;2023-02-01T02:56:53;101744.84;;;7.04;71.45
68075;BME280;54864;52.002;5.468;2023-02-01T02:58:15;101735.91;;;7.19;71.14
68075;BME280;54864;52.002;5.468;2023-02-01T02:59:35;101745.56;;;7.14;71.40
68075;BME280;54864;52.002;5.468;2023-02-01T03:00:56;101747.97;;;7.29;70.86
68075;BME280;54864;52.002;5.468;2023-02-01T03:02:17;101737.53;;;7.26;71.02
68075;BME280;54864;52.002;5.468;2023-02-01T03:03:38;101740.94;;;7.31;70.71
68075;BME280;54864;52.002;5.468;2023-02-01T03:04:59;101742.66;;;7.32;71.15
68075;BME280;54864;52.002;5.468;2023-02-01T03:06:01;101720.75;;;7.36;70.81
68075;BME280;54864;52.002;5.468;2023-02-01T03:07:12;101728.59;;;7.36;70.92
68075;BME280;54864;52.002;5.468;2023-02-01T03:08:16;101729.59;;;7.29;71.12
68075;BME280;54864;52.002;5.468;2023-02-01T03:09:22;101706.00;;;7.29;70.93
68075;BME280;54864;52.002;5.468;2023-02-01T03:10:35;101698.09;;;7.30;71.25
68075;BME280;54864;52.002;5.468;2023-02-01T03:11:38;101699.06;;;7.26;71.03
68075;BME280;54864;52.002;5.468;2023-02-01T03:13:01;101699.81;;;7.33;71.33
68075;BME280;54864;52.002;5.468;2023-02-01T03:14:04;101700.59;;;7.38;71.53
68075;BME280;54864;52.002;5.468;2023-02-01T03:15:10;101702.25;;;7.44;70.76
68075;BME280;54864;52.002;5.468;2023-02-01T03:16:16;101705.75;;;7.43;71.27
68075;BME280;54864;52.002;5.468;2023-02-01T03:17:22;101710.91;;;7.47;71.73
68075;BME280;54864;52.002;5.468;2023-02-01T03:18:31;101701.47;;;7.39;71.68
68075;BME280;54864;52.002;5.468;2023-02-01T03:19:37;101705.06;;;7.33;71.04
68075;BME280;54864;52.002;5.468;2023-02-01T03:20:48;101703.28;;;7.35;71.14
68075;BME280;54864;52.002;5.468;2023-02-01T03:21:53;101698.78;;;7.42;71.22
68075;BME280;54864;52.002;5.468;2023-02-01T03:22:57;101697.84;;;7.44;70.89
68075;BME280;54864;52.002;5.468;2023-02-01T03:24:03;101702.41;;;7.35;71.62
68075;BME280;54864;52.002;5.468;2023-02-01T03:25:08;101694.53;;;7.35;71.42
68075;BME280;54864;52.002;5.468;2023-02-01T03:26:13;101696.34;;;7.31;71.07
68075;BME280;54864;52.002;5.468;2023-02-01T03:27:20;101704.16;;;7.34;71.17
68075;BME280;54864;52.002;5.468;2023-02-01T03:28:25;101695.47;;;7.30;71.77
68075;BME280;54864;52.002;5.468;2023-02-01T03:29:34;101699.81;;;7.33;71.04
68075;BME280;54864;52.002;5.468;2023-02-01T03:30:41;101698.84;;;7.39;70.93
68075;BME280;54864;52.002;5.468;2023-02-01T03:31:43;101702.31;;;7.39;71.13
68075;BME280;54864;52.002;5.468;2023-02-01T03:32:47;101701.41;;;7.42;71.04
68075;BME280;54864;52.002;5.468;2023-02-01T03:33:59;101705.91;;;7.35;71.19
68075;BME280;54864;52.002;5.468;2023-02-01T03:35:01;101698.84;;;7.39;70.87
68075;BME280;54864;52.002;5.468;2023-02-01T03:36:12;101698.13;;;7.29;70.52
68075;BME280;54864;52.002;5.468;2023-02-01T03:37:21;101706.88;;;7.29;70.76
68075;BME280;54864;52.002;5.468;2023-02-01T03:38:27;101698.06;;;7.32;70.90
68075;BME280;54864;52.002;5.468;2023-02-01T03:39:33;101696.28;;;7.34;70.18
68075;BME280;54864;52.002;5.468;2023-02-01T03:40:36;101698.03;;;7.35;70.56
68075;BME280;54864;52.002;5.468;2023-02-01T03:41:41;101695.50;;;7.29;70.52
68075;BME280;54864;52.002;5.468;2023-02-01T03:42:46;101692.16;;;7.21;70.94
68075;BME280;54864;52.002;5.468;2023-02-01T03:43:53;101698.41;;;7.11;71.56
68075;BME280;54864;52.002;5.468;2023-02-01T03:44:58;101706.25;;;7.15;71.17
68075;BME280;54864;52.002;5.468;2023-02-01T03:46:09;101706.22;;;7.17;70.79
68075;BME280;54864;52.002;5.468;2023-02-01T03:47:15;101710.47;;;7.24;71.04
68075;BME280;54864;52.002;5.468;2023-02-01T03:48:20;101719.19;;;7.24;71.13
68075;BME280;54864;52.002;5.468;2023-02-01T03:49:26;101715.84;;;7.13;70.86
68075;BME280;54864;52.002;5.468;2023-02-01T03:50:30;101715.84;;;7.16;71.49
68075;BME280;54864;52.002;5.468;2023-02-01T03:51:36;101704.63;;;7.05;71.01
68075;BME280;54864;52.002;5.468;2023-02-01T03:52:41;101715.72;;;7.22;70.80
68075;BME280;54864;52.002;5.468;2023-02-01T03:53:44;101707.78;;;7.27;70.23
68075;BME280;54864;52.002;5.468;2023-02-01T03:54:49;101712.13;;;7.29;69.68
68075;BME280;54864;52.002;5.468;2023-02-01T03:55:52;101717.38;;;7.28;70.20
68075;BME280;54864;52.002;5.468;2023-02-01T03:56:56;101714.88;;;7.22;70.00
68075;BME280;54864;52.002;5.468;2023-02-01T03:58:04;101726.97;;;7.30;70.03
68075;BME280;54864;52.002;5.468;2023-02-01T03:59:08;101719.00;;;7.35;69.05
68075;BME280;54864;52.002;5.468;2023-02-01T04:00:15;101721.66;;;7.34;69.47
68075;BME280;54864;52.002;5.468;2023-02-01T04:01:17;101725.16;;;7.34;69.48
68075;BME280;54864;52.002;5.468;2023-02-01T04:02:18;101713.00;;;7.28;69.15
68075;BME280;54864;52.002;5.468;2023-02-01T04:03:20;101707.13;;;7.13;70.11
68075;BME280;54864;52.002;5.468;2023-02-01T04:04:22;101718.41;;;7.19;69.63
68075;BME280;54864;52.002;5.468;2023-02-01T04:05:23;101726.28;;;7.19;70.17
68075;BME280;54864;52.002;5.468;2023-02-01T04:06:24;101732.38;;;7.21;69.71
68075;BME280;54864;52.002;5.468;2023-02-01T04:07:28;101728.84;;;7.22;69.84
68075;BME280;54864;52.002;5.468;2023-02-01T04:08:29;101727.13;;;7.21;69.65
68075;BME280;54864;52.002;5.468;2023-02-01T04:09:30;101717.63;;;7.13;69.66
68075;BME280;54864;52.002;5.468;2023-02-01T04:10:32;101723.75;;;7.12;70.25
68075;BME280;54864;52.002;5.468;2023-02-01T04:11:33;101710.63;;;7.13;70.96
68075;BME280;54864;52.002;5.468;2023-02-01T04:12:34;101713.22;;;7.16;70.33
68075;BME280;54864;52.002;5.468;2023-02-01T04:13:35;101725.28;;;7.26;70.08
68075;BME280;54864;52.002;5.468;2023-02-01T04:14:37;101720.06;;;7.25;69.77
68075;BME280;54864;52.002;5.468;2023-02-01T04:15:38;101720.94;;;7.24;69.67
68075;BME280;54864;52.002;5.468;2023-02-01T04:16:40;101705.25;;;7.22;70.02
68075;BME280;54864;52.002;5.468;2023-02-01T04:17:41;101711.38;;;7.21;70.45
68075;BME280;54864;52.002;5.468;2023-02-01T04:18:43;101705.03;;;7.35;69.53
68075;BME280;54864;52.002;5.468;2023-02-01T04:19:43;101713.75;;;7.37;69.76
68075;BME280;54864;52.002;5.468;2023-02-01T04:20:45;101711.28;;;7.27;69.83
68075;BME280;54864;52.002;5.468;2023-02-01T04:21:46;101706.84;;;7.31;69.73
68075;BME280;54864;52.002;5.468;2023-02-01T04:22:49;101713.88;;;7.29;70.21
68075;BME280;54864;52.002;5.468;2023-02-01T04:23:50;101703.28;;;7.35;69.79
68075;BME280;54864;52.002;5.468;2023-02-01T04:24:52;101705.94;;;7.32;69.67
68075;BME280;54864;52.002;5.468;2023-02-01T04:25:52;101704.16;;;7.34;69.76
68075;BME280;54864;52.002;5.468;2023-02-01T04:26:54;101702.38;;;7.36;70.34
68075;BME280;54864;52.002;5.468;2023-02-01T04:27:55;101700.78;;;7.27;70.28
68075;BME280;54864;52.002;5.468;2023-02-01T04:28:57;101707.63;;;7.36;70.39
68075;BME280;54864;52.002;5.468;2023-02-01T04:29:57;101701.34;;;7.45;70.14
68075;BME280;54864;52.002;5.468;2023-02-01T04:30:59;101716.31;;;7.40;69.94
68075;BME280;54864;52.002;5.468;2023-02-01T04:32:00;101712.75;;;7.42;70.63
68075;BME280;54864;52.002;5.468;2023-02-01T04:33:02;101709.31;;;7.39;69.97
68075;BME280;54864;52.002;5.468;2023-02-01T04:34:05;101715.34;;;7.44;70.06
68075;BME280;54864;52.002;5.468;2023-02-01T04:35:08;101723.25;;;7.42;70.24
68075;BME280;54864;52.002;5.468;2023-02-01T04:36:09;101732.94;;;7.39;70.28
68075;BME280;54864;52.002;5.468;2023-02-01T04:37:14;101726.84;;;7.37;70.32
68075;BME280;54864;52.002;5.468;2023-02-01T04:38:17;101730.22;;;7.43;70.41
68075;BME280;54864;52.002;5.468;2023-02-01T04:39:18;101720.63;;;7.42;70.41
68075;BME280;54864;52.002;5.468;2023-02-01T04:40:20;101724.19;;;7.40;69.82
68075;BME280;54864;52.002;5.468;2023-02-01T04:41:20;101717.06;;;7.46;69.89
68075;BME280;54864;52.002;5.468;2023-02-01T04:42:23;101718.22;;;7.30;70.75
68075;BME280;54864;52.002;5.468;2023-02-01T04:43:24;101723.44;;;7.31;70.67
68075;BME280;54864;52.002;5.468;2023-02-01T04:44:25;101716.44;;;7.32;70.11
68075;BME280;54864;52.002;5.468;2023-02-01T04:45:26;101710.97;;;7.44;70.13
68075;BME280;54864;52.002;5.468;2023-02-01T04:46:28;101710.72;;;7.58;69.59
68075;BME280;54864;52.002;5.468;2023-02-01T04:47:29;101716.72;;;7.64;69.43
68075;BME280;54864;52.002;5.468;2023-02-01T04:48:30;101715.88;;;7.62;69.35
68075;BME280;54864;52.002;5.468;2023-02-01T04:49:31;101708.81;;;7.66;69.34
68075;BME280;54864;52.002;5.468;2023-02-01T04:50:34;101710.81;;;7.53;69.55
68075;BME280;54864;52.002;5.468;2023-02-01T04:51:34;101704.47;;;7.65;69.44
68075;BME280;54864;52.002;5.468;2023-02-01T04:52:36;101707.91;;;7.67;69.48
68075;BME280;54864;52.002;5.468;2023-02-01T04:53:39;101700.06;;;7.66;69.13
68075;BME280;54864;52.002;5.468;2023-02-01T04:54:40;101701.69;;;7.73;69.01
68075;BME280;54864;52.002;5.468;2023-02-01T04:55:42;101700.72;;;7.77;68.98
68075;BME280;54864;52.002;5.468;2023-02-01T04:56:44;101705.97;;;7.77;68.57
68075;BME280;54864;52.002;5.468;2023-02-01T04:57:45;101708.59;;;7.77;69.02
68075;BME280;54864;52.002;5.468;2023-02-01T04:58:46;101703.59;;;7.64;68.95
68075;BME280;54864;52.002;5.468;2023-02-01T04:59:47;101695.78;;;7.61;69.21
68075;BME280;54864;52.002;5.468;2023-02-01T05:00:49;101695.84;;;7.58;69.21
68075;BME280;54864;52.002;5.468;2023-02-01T05:01:50;101698.47;;;7.58;69.21
68075;BME280;54864;52.002;5.468;2023-02-01T05:02:52;101697.59;;;7.58;68.61
68075;BME280;54864;52.002;5.468;2023-02-01T05:03:52;101703.69;;;7.60;68.98
68075;BME280;54864;52.002;5.468;2023-02-01T05:04:54;101703.75;;;7.55;68.92
68075;BME280;54864;52.002;5.468;2023-02-01T05:05:56;101705.47;;;7.58;69.01
68075;BME280;54864;52.002;5.468;2023-02-01T05:06:57;101697.88;;;7.43;69.70
68075;BME280;54864;52.002;5.468;2023-02-01T05:07:59;101703.06;;;7.46;69.51
68075;BME280;54864;52.002;5.468;2023-02-01T05:09:02;101703.22;;;7.38;70.14
68075;BME280;54864;52.002;5.468;2023-02-01T05:10:03;101691.72;;;7.45;70.36
68075;BME280;54864;52.002;5.468;2023-02-01T05:11:05;101691.41;;;7.62;69.63
68075;BME280;54864;52.002;5.468;2023-02-01T05:12:06;101693.19;;;7.60;69.41
68075;BME280;54864;52.002;5.468;2023-02-01T05:13:25;101696.47;;;7.71;69.55
68075;BME280;54864;52.002;5.468;2023-02-01T05:14:45;101708.03;;;7.61;69.11
68075;BME280;54864;52.002;5.468;2023-02-01T05:15:50;101690.69;;;7.54;69.34
68075;BME280;54864;52.002;5.468;2023-02-01T05:16:50;101694.22;;;7.51;69.59
68075;BME280;54864;52.002;5.468;2023-02-01T05:17:52;101695.81;;;7.60;69.99
68075;BME280;54864;52.002;5.468;2023-02-01T05:18:53;101694.16;;;7.54;69.87
68075;BME280;54864;52.002;5.468;2023-02-01T05:19:55;101697.50;;;7.62;69.29
68075;BME280;54864;52.002;5.468;2023-02-01T05:20:56;101694.00;;;7.63;69.31
68075;BME280;54864;52.002;5.468;2023-02-01T05:21:58;101689.91;;;7.49;69.75
68075;BME280;54864;52.002;5.468;2023-02-01T05:22:58;101683.13;;;7.37;70.06
68075;BME280;54864;52.002;5.468;2023-02-01T05:24:02;101683.84;;;7.45;70.59
68075;BME280;54864;52.002;5.468;2023-02-01T05:25:14;101687.31;;;7.47;70.14
68075;BME280;54864;52.002;5.468;2023-02-01T05:26:16;101699.53;;;7.48;69.74
68075;BME280;54864;52.002;5.468;2023-02-01T05:27:16;101688.16;;;7.48;70.02
68075;BME280;54864;52.002;5.468;2023-02-01T05:28:18;101690.09;;;7.38;69.79
68075;BME280;54864;52.002;5.468;2023-02-01T05:29:21;101693.91;;;7.20;70.96
68075;BME280;54864;52.002;5.468;2023-02-01T05:30:23;101691.84;;;7.38;71.16
68075;BME280;54864;52.002;5.468;2023-02-01T05:31:24;101698.69;;;7.46;70.24
68075;BME280;54864;52.002;5.468;2023-02-01T05:32:26;101703.03;;;7.47;70.53
68075;BME280;54864;52.002;5.468;2023-02-01T05:33:29;101704.78;;;7.48;70.59
68075;BME280;54864;52.002;5.468;2023-02-01T05:34:31;101707.47;;;7.45;70.42
68075;BME280;54864;52.002;5.468;2023-02-01T05:35:35;101705.56;;;7.53;70.52
68075;BME280;54864;52.002;5.468;2023-02-01T05:36:36;101715.94;;;7.59;69.87
68075;BME280;54864;52.002;5.468;2023-02-01T05:37:37;101714.19;;;7.60;69.42
68075;BME280;54864;52.002;5.468;2023-02-01T05:38:39;101713.28;;;7.61;69.26
68075;BME280;54864;52.002;5.468;2023-02-01T05:39:41;101713.44;;;7.53;69.55
68075;BME280;54864;52.002;5.468;2023-02-01T05:40:43;101719.66;;;7.48;70.44
68075;BME280;54864;52.002;5.468;2023-02-01T05:41:49;101707.47;;;7.44;70.29
68075;BME280;54864;52.002;5.468;2023-02-01T05:42:51;101717.91;;;7.48;70.29
68075;BME280;54864;52.002;5.468;2023-02-01T05:43:52;101714.38;;;7.49;69.70
68075;BME280;54864;52.002;5.468;2023-02-01T05:44:54;101716.06;;;7.53;69.88
68075;BME280;54864;52.002;5.468;2023-02-01T05:45:54;101727.38;;;7.55;69.70
68075;BME280;54864;52.002;5.468;2023-02-01T05:46:56;101712.69;;;7.45;70.24
68075;BME280;54864;52.002;5.468;2023-02-01T05:47:57;101712.69;;;7.45;69.65